Time;durP1;ratioP1;P1;durP2;ratioP2;P2;SDS_P1;SDS_P2;PMS_P1;PMS_P2;Temp;Humidity;BMP_temperature;BMP_pressure;BME280_temperature;BME280_humidity;BME280_pressure;Samples;Min_cycle;Max_cycle;Signal;HPM_P1;HPM_P2
2020/12/22 00:01:20;;;;;;;30.95;17.55;;;12.40;99.90;;;;;;5074357;28;20048;-89
2020/12/22 00:03:46;;;;;;;25.35;16.23;;;12.40;99.90;;;;;;5039739;28;20032;-89
2020/12/22 00:06:12;;;;;;;24.05;15.68;;;12.50;99.90;;;;;;5036441;28;20042;-89
2020/12/22 00:08:38;;;;;;;26.17;16.25;;;12.50;99.90;;;;;;5043284;28;20031;-90
2020/12/22 00:11:04;;;;;;;26.92;16.33;;;12.60;99.90;;;;;;5040776;28;20025;-89
2020/12/22 00:13:30;;;;;;;26.05;16.20;;;12.60;99.90;;;;;;5060830;28;20522;-88
2020/12/22 00:15:55;;;;;;;27.30;17.02;;;12.60;99.90;;;;;;5045694;28;20028;-90
2020/12/22 00:18:21;;;;;;;29.10;16.17;;;12.60;99.90;;;;;;5081095;28;20016;-88
2020/12/22 00:20:48;;;;;;;28.45;16.70;;;12.60;99.90;;;;;;5061909;28;20468;-88
2020/12/22 00:23:13;;;;;;;27.30;16.55;;;12.70;99.90;;;;;;5060804;28;20032;-88
2020/12/22 00:25:46;;;;;;;25.73;16.40;;;12.70;99.90;;;;;;5060384;28;20062;-88
2020/12/22 00:28:13;;;;;;;21.63;14.40;;;12.70;99.90;;;;;;5074802;28;20056;-89
2020/12/22 00:30:40;;;;;;;26.48;15.13;;;12.70;99.90;;;;;;5054540;28;20024;-90
2020/12/22 00:33:07;;;;;;;20.42;13.30;;;12.80;99.90;;;;;;5061287;28;20025;-89
2020/12/22 00:35:33;;;;;;;25.25;14.50;;;12.80;99.90;;;;;;5070768;28;20461;-89
2020/12/22 00:38:00;;;;;;;23.48;14.80;;;12.90;99.90;;;;;;5061925;28;20025;-88
2020/12/22 00:40:26;;;;;;;23.33;13.55;;;12.90;99.90;;;;;;5056206;28;20032;-89
2020/12/22 00:42:52;;;;;;;23.15;13.95;;;12.90;99.90;;;;;;5040112;28;20025;-89
2020/12/22 00:45:19;;;;;;;24.17;13.73;;;13.00;99.90;;;;;;5038734;28;20028;-88
2020/12/22 00:47:45;;;;;;;20.35;12.75;;;13.00;99.90;;;;;;5069325;28;20086;-89
2020/12/22 00:50:10;;;;;;;20.20;13.25;;;13.00;99.90;;;;;;5041926;28;20033;-89
2020/12/22 00:52:36;;;;;;;19.60;11.82;;;13.00;99.90;;;;;;5058527;28;20044;-90
2020/12/22 00:55:02;;;;;;;18.35;12.10;;;13.00;99.90;;;;;;5042027;28;20571;-89
2020/12/22 00:57:28;;;;;;;17.27;10.95;;;13.00;99.90;;;;;;5058205;28;20074;-91
2020/12/22 00:59:56;;;;;;;19.63;12.02;;;13.10;99.80;;;;;;5041503;28;20039;-89
2020/12/22 01:02:21;;;;;;;19.67;11.48;;;13.10;99.80;;;;;;5075587;28;20108;-89
2020/12/22 01:04:49;;;;;;;15.68;10.63;;;13.10;99.90;;;;;;5041506;28;20187;-90
2020/12/22 01:07:15;;;;;;;12.25;8.85;;;13.10;99.90;;;;;;5041437;28;20541;-89
2020/12/22 01:09:41;;;;;;;16.17;10.35;;;13.20;99.90;;;;;;5041814;28;20016;-89
2020/12/22 01:12:06;;;;;;;13.95;9.38;;;13.20;99.90;;;;;;5041284;28;20411;-89
2020/12/22 01:14:32;;;;;;;12.38;8.68;;;13.20;99.90;;;;;;5075358;28;20036;-91
2020/12/22 01:16:58;;;;;;;13.32;8.68;;;13.20;99.90;;;;;;5057641;28;20029;-90
2020/12/22 01:19:27;;;;;;;10.75;7.72;;;13.20;99.90;;;;;;5039752;28;20029;-89
2020/12/22 01:21:56;;;;;;;12.05;8.45;;;13.30;99.90;;;;;;5021079;28;20047;-90
2020/12/22 01:24:22;;;;;;;9.52;7.32;;;13.30;99.90;;;;;;5057517;28;20025;-90
2020/12/22 01:26:49;;;;;;;9.10;7.07;;;13.30;99.90;;;;;;5057827;28;20175;-90
2020/12/22 01:29:15;;;;;;;9.90;7.60;;;13.30;99.90;;;;;;5065984;28;20064;-90
2020/12/22 01:31:41;;;;;;;9.30;7.00;;;13.40;99.90;;;;;;5038393;28;20036;-87
2020/12/22 01:34:06;;;;;;;9.07;6.80;;;13.40;99.80;;;;;;5053646;28;20365;-90
2020/12/22 01:36:32;;;;;;;9.23;6.82;;;13.40;99.70;;;;;;5038625;28;20374;-92
2020/12/22 01:38:58;;;;;;;10.10;6.80;;;13.40;99.80;;;;;;5041823;28;20035;-92
2020/12/22 01:41:24;;;;;;;8.80;6.25;;;13.40;99.70;;;;;;5057317;28;20021;-91
2020/12/22 01:44:11;;;;;;;10.43;7.53;;;13.40;99.70;;;;;;5058206;28;20034;-90
2020/12/22 01:46:42;;;;;;;9.13;6.38;;;13.40;99.80;;;;;;5057381;28;20028;-90
2020/12/22 01:49:16;;;;;;;;;;;13.40;99.80;;;;;;5067103;28;20043;-90
2020/12/22 01:51:44;;;;;;;8.38;5.80;;;13.50;99.90;;;;;;5056822;28;20349;-90
2020/12/22 01:54:10;;;;;;;8.05;5.68;;;13.40;99.90;;;;;;5063956;28;20024;-89
2020/12/22 01:56:37;;;;;;;8.38;6.03;;;13.40;99.90;;;;;;5042902;28;20104;-89
2020/12/22 01:59:03;;;;;;;9.27;5.60;;;13.40;99.90;;;;;;5074517;28;20055;-89
2020/12/22 02:01:31;;;;;;;7.20;5.00;;;13.40;99.90;;;;;;5056419;28;20029;-90
2020/12/22 02:03:58;;;;;;;7.25;5.03;;;13.50;99.90;;;;;;5060266;28;20047;-91
2020/12/22 02:06:31;;;;;;;6.43;4.47;;;13.50;99.90;;;;;;5072890;28;20181;-89
2020/12/22 02:08:57;;;;;;;7.20;4.35;;;13.50;99.90;;;;;;5058961;28;20024;-90
2020/12/22 02:11:34;;;;;;;5.63;4.00;;;13.50;99.90;;;;;;5047917;28;20024;-88
2020/12/22 02:14:02;;;;;;;5.85;3.90;;;13.50;99.90;;;;;;5056605;28;20016;-89
2020/12/22 02:16:28;;;;;;;5.53;3.83;;;13.50;99.90;;;;;;5056178;28;20027;-89
2020/12/22 02:19:01;;;;;;;4.18;3.10;;;13.50;99.90;;;;;;5056753;28;20024;-89
2020/12/22 02:21:27;;;;;;;4.18;3.10;;;13.50;99.90;;;;;;5056325;28;20032;-87
2020/12/22 02:23:52;;;;;;;5.50;3.78;;;13.50;99.90;;;;;;5069625;28;20020;-89
2020/12/22 02:26:26;;;;;;;4.97;3.50;;;13.50;99.90;;;;;;5056643;28;20412;-88
2020/12/22 02:28:56;;;;;;;5.07;3.38;;;13.50;99.90;;;;;;5055900;28;20052;-89
2020/12/22 02:31:26;;;;;;;3.97;3.10;;;13.50;99.90;;;;;;5052970;28;20033;-88
2020/12/22 02:33:56;;;;;;;4.13;3.15;;;13.50;99.90;;;;;;5047664;28;20020;-89
2020/12/22 02:36:21;;;;;;;4.45;3.30;;;13.50;99.90;;;;;;5056602;28;20017;-88
2020/12/22 02:38:47;;;;;;;4.25;3.08;;;13.50;99.90;;;;;;5023210;28;20025;-90
2020/12/22 02:41:13;;;;;;;5.93;3.50;;;13.50;99.90;;;;;;5039262;28;20024;-89
2020/12/22 02:43:39;;;;;;;3.88;2.88;;;13.50;99.90;;;;;;5073915;28;20101;-90
2020/12/22 02:46:05;;;;;;;4.20;2.95;;;13.50;99.90;;;;;;5055919;28;20040;-89
2020/12/22 02:48:31;;;;;;;3.15;2.65;;;13.50;99.90;;;;;;5073559;28;20052;-88
2020/12/22 02:50:56;;;;;;;3.75;2.83;;;13.60;99.90;;;;;;5039500;28;20067;-90
2020/12/22 02:53:22;;;;;;;3.25;2.10;;;13.60;99.70;;;;;;5056600;28;20024;-89
2020/12/22 02:55:48;;;;;;;3.65;2.40;;;13.60;99.80;;;;;;5036185;28;20412;-91
2020/12/22 02:58:14;;;;;;;3.72;2.60;;;13.60;99.70;;;;;;5018445;28;20033;-89
2020/12/22 03:00:41;;;;;;;4.80;3.28;;;13.60;99.70;;;;;;5039164;28;20035;-87
2020/12/22 03:03:07;;;;;;;4.38;3.30;;;13.60;99.70;;;;;;5055949;28;20059;-90
2020/12/22 03:05:33;;;;;;;4.78;3.38;;;13.60;99.70;;;;;;5052548;28;20116;-89
2020/12/22 03:07:59;;;;;;;5.13;3.97;;;13.60;99.70;;;;;;5048510;28;20075;-88
2020/12/22 03:10:24;;;;;;;8.63;4.18;;;13.60;99.70;;;;;;5039335;28;20052;-89
2020/12/22 03:12:50;;;;;;;5.53;3.75;;;13.60;99.80;;;;;;5053203;28;20121;-89
2020/12/22 03:15:16;;;;;;;8.65;5.50;;;13.60;99.80;;;;;;5051995;28;20020;-89
2020/12/22 03:17:42;;;;;;;5.68;4.00;;;13.60;99.60;;;;;;5056063;28;20029;-88
2020/12/22 03:20:11;;;;;;;7.50;5.95;;;13.60;99.70;;;;;;5038881;28;20044;-89
2020/12/22 03:22:38;;;;;;;6.78;5.30;;;13.70;99.60;;;;;;5041172;28;20044;-89
2020/12/22 03:25:06;;;;;;;6.95;5.30;;;13.70;99.60;;;;;;5073270;28;20492;-89
2020/12/22 03:27:32;;;;;;;8.35;6.00;;;13.70;99.60;;;;;;5055406;28;20052;-88
2020/12/22 03:29:58;;;;;;;9.25;6.60;;;13.70;99.50;;;;;;5035890;28;20049;-88
2020/12/22 03:32:24;;;;;;;6.30;5.18;;;13.70;99.50;;;;;;5052422;28;20074;-87
2020/12/22 03:34:50;;;;;;;8.43;7.10;;;13.70;99.50;;;;;;5052403;28;20040;-89
2020/12/22 03:37:22;;;;;;;8.48;6.70;;;13.70;99.40;;;;;;5052734;28;20036;-89
2020/12/22 03:39:53;;;;;;;8.68;6.15;;;13.70;99.40;;;;;;5035994;28;20079;-90
2020/12/22 03:42:19;;;;;;;8.50;5.57;;;13.70;99.40;;;;;;5048555;28;20095;-89
2020/12/22 03:44:46;;;;;;;7.45;5.68;;;13.70;99.40;;;;;;5048247;28;20037;-89
2020/12/22 03:47:13;;;;;;;8.73;5.88;;;13.70;99.40;;;;;;5034806;28;20033;-90
2020/12/22 03:49:40;;;;;;;6.53;5.35;;;13.70;99.40;;;;;;5050801;28;20495;-90
2020/12/22 03:52:06;;;;;;;8.85;5.97;;;13.70;99.40;;;;;;5051796;28;20473;-89
2020/12/22 03:54:32;;;;;;;6.25;4.60;;;13.60;99.30;;;;;;5049760;28;20116;-89
2020/12/22 03:56:58;;;;;;;5.30;4.13;;;13.60;99.40;;;;;;5052314;28;20033;-89
2020/12/22 03:59:25;;;;;;;6.30;4.20;;;13.60;99.40;;;;;;5033217;28;20120;-88
2020/12/22 04:01:51;;;;;;;11.23;7.25;;;13.60;99.40;;;;;;5034755;28;20025;-88
2020/12/22 04:04:22;;;;;;;10.48;6.78;;;13.60;99.40;;;;;;5051670;28;20033;-89
2020/12/22 04:06:49;;;;;;;5.25;4.28;;;13.70;99.30;;;;;;5052282;28;20071;-89
2020/12/22 04:09:16;;;;;;;6.90;5.15;;;13.70;99.40;;;;;;5035605;28;20028;-89
2020/12/22 04:11:42;;;;;;;9.43;5.40;;;13.70;99.30;;;;;;5052171;28;20112;-89
2020/12/22 04:14:08;;;;;;;8.45;5.50;;;13.70;99.20;;;;;;5052371;28;20061;-89
2020/12/22 04:16:35;;;;;;;7.75;5.57;;;13.70;99.10;;;;;;5019318;28;20028;-89
2020/12/22 04:19:01;;;;;;;7.10;5.05;;;13.60;99.20;;;;;;5053332;28;20029;-89
2020/12/22 04:21:27;;;;;;;7.07;4.75;;;13.60;99.20;;;;;;5051719;28;20025;-90
2020/12/22 04:23:54;;;;;;;7.45;5.28;;;13.60;99.20;;;;;;5051468;28;20029;-89
2020/12/22 04:26:20;;;;;;;9.68;5.82;;;13.60;99.10;;;;;;5034233;28;20052;-89
2020/12/22 04:28:46;;;;;;;6.57;4.63;;;13.60;99.10;;;;;;5034565;28;20033;-91
2020/12/22 04:31:12;;;;;;;8.52;4.60;;;13.60;99.20;;;;;;5070864;28;20052;-91
2020/12/22 04:33:38;;;;;;;7.88;5.10;;;13.60;99.20;;;;;;5054554;28;20496;-89
2020/12/22 04:36:04;;;;;;;9.98;5.38;;;13.60;99.10;;;;;;5059731;28;20502;-90
2020/12/22 04:38:31;;;;;;;7.32;4.30;;;13.60;99.10;;;;;;5024706;28;20033;-90
2020/12/22 04:40:58;;;;;;;6.47;4.32;;;13.60;99.10;;;;;;5072646;28;20025;-90
2020/12/22 04:43:25;;;;;;;10.02;4.95;;;13.70;99.10;;;;;;5038398;28;20051;-89
2020/12/22 04:45:51;;;;;;;10.10;5.72;;;13.60;99.10;;;;;;5037579;28;20071;-90
2020/12/22 04:48:22;;;;;;;7.25;4.78;;;13.60;99.10;;;;;;5037739;28;20045;-89
2020/12/22 04:50:48;;;;;;;7.53;4.80;;;13.60;99.10;;;;;;5071201;28;20460;-91
2020/12/22 04:53:15;;;;;;;6.00;4.00;;;13.60;99.00;;;;;;5044093;28;20110;-89
2020/12/22 04:55:41;;;;;;;7.28;3.85;;;13.60;99.10;;;;;;5057859;28;20519;-89
2020/12/22 04:58:08;;;;;;;5.18;3.42;;;13.60;99.10;;;;;;5057912;28;20100;-90
2020/12/22 05:00:33;;;;;;;6.60;3.70;;;13.60;99.30;;;;;;5027632;28;20464;-88
2020/12/22 05:03:02;;;;;;;6.60;3.35;;;13.60;99.10;;;;;;5042058;28;20097;-90
2020/12/22 05:05:27;;;;;;;4.22;3.08;;;13.50;99.00;;;;;;5072976;28;20079;-90
2020/12/22 05:07:56;;;;;;;4.82;3.15;;;13.50;99.10;;;;;;5065075;28;20484;-87
2020/12/22 05:10:24;;;;;;;4.32;2.53;;;13.50;99.00;;;;;;5046957;28;20075;-91
2020/12/22 05:12:49;;;;;;;3.97;2.45;;;13.40;99.00;;;;;;5078394;28;20044;-92
2020/12/22 05:15:15;;;;;;;5.20;3.08;;;13.50;99.00;;;;;;5045442;28;20047;-91
2020/12/22 05:17:44;;;;;;;5.95;3.25;;;13.50;99.00;;;;;;5010313;28;20541;-91
2020/12/22 05:20:13;;;;;;;7.07;3.67;;;13.50;99.00;;;;;;5059782;28;20099;-90
2020/12/22 05:22:45;;;;;;;8.48;4.18;;;13.50;98.90;;;;;;5043024;28;20028;-89
2020/12/22 05:25:19;;;;;;;6.93;4.55;;;13.40;98.80;;;;;;5059112;28;20043;-90
2020/12/22 05:27:48;;;;;;;7.78;4.38;;;13.40;98.80;;;;;;5060061;28;20021;-90
2020/12/22 05:30:16;;;;;;;6.10;4.07;;;13.40;98.70;;;;;;5076369;28;20052;-91
2020/12/22 05:32:43;;;;;;;5.60;4.10;;;13.40;98.80;;;;;;5075694;28;20027;-90
2020/12/22 05:35:12;;;;;;;5.95;4.28;;;13.40;98.60;;;;;;5058237;28;20107;-91
2020/12/22 05:37:41;;;;;;;6.55;4.78;;;13.30;98.60;;;;;;5057027;28;20047;-91
2020/12/22 05:40:11;;;;;;;7.95;4.50;;;13.30;98.70;;;;;;5076070;28;20154;-91
2020/12/22 05:42:37;;;;;;;5.55;3.83;;;13.30;98.60;;;;;;5057948;28;20040;-92
2020/12/22 05:45:05;;;;;;;6.78;3.60;;;13.30;98.70;;;;;;5058879;28;20029;-90
2020/12/22 05:47:31;;;;;;;5.80;2.40;;;13.30;98.70;;;;;;5042583;28;20044;-92
2020/12/22 05:49:58;;;;;;;5.90;2.00;;;13.30;98.70;;;;;;5057606;28;20017;-89
2020/12/22 05:52:26;;;;;;;4.32;2.10;;;13.20;98.60;;;;;;5040678;28;20055;-91
2020/12/22 05:54:54;;;;;;;2.38;1.50;;;13.30;98.60;;;;;;5074749;28;20025;-91
2020/12/22 05:57:26;;;;;;;3.28;1.50;;;13.20;98.50;;;;;;5075131;28;20480;-89
2020/12/22 05:59:56;;;;;;;3.97;1.67;;;13.20;98.60;;;;;;5040621;28;20044;-91
2020/12/22 06:02:32;;;;;;;5.40;2.30;;;13.30;98.50;;;;;;5041308;28;20024;-92
2020/12/22 06:05:02;;;;;;;4.20;2.50;;;13.30;98.50;;;;;;5073955;28;20016;-91
2020/12/22 06:07:29;;;;;;;5.97;2.73;;;13.20;98.40;;;;;;5056958;28;20036;-89
2020/12/22 06:09:56;;;;;;;9.13;4.00;;;13.20;98.50;;;;;;5057169;28;20029;-90
2020/12/22 06:12:24;;;;;;;10.80;5.00;;;13.20;98.60;;;;;;5056742;28;20105;-91
2020/12/22 06:14:56;;;;;;;11.70;4.45;;;13.20;98.60;;;;;;5056689;28;20020;-91
2020/12/22 06:17:22;;;;;;;11.23;4.85;;;13.30;98.70;;;;;;5056637;28;20027;-92
2020/12/22 06:19:48;;;;;;;9.63;6.63;;;13.20;98.60;;;;;;5074299;28;20020;-90
2020/12/22 06:22:16;;;;;;;8.52;5.95;;;13.20;98.60;;;;;;5056529;28;20020;-91
2020/12/22 06:24:43;;;;;;;9.43;6.40;;;13.20;98.60;;;;;;5040619;28;20033;-92
2020/12/22 06:27:11;;;;;;;11.77;7.07;;;13.30;98.70;;;;;;5063538;28;20145;-88
2020/12/22 06:29:41;;;;;;;12.38;7.18;;;13.30;98.60;;;;;;5068713;28;20060;-88
2020/12/22 06:32:16;;;;;;;10.98;6.78;;;13.30;98.60;;;;;;5053081;28;20035;-90
2020/12/22 06:34:43;;;;;;;12.32;6.85;;;13.30;98.70;;;;;;5023176;28;20029;-91
2020/12/22 06:37:09;;;;;;;11.13;7.88;;;13.30;98.60;;;;;;5038355;28;20598;-91
2020/12/22 06:39:45;;;;;;;11.13;7.65;;;13.30;98.60;;;;;;5039574;28;20036;-88
2020/12/22 06:42:31;;;;;;;13.75;8.20;;;13.30;98.60;;;;;;5048385;28;20032;-89
2020/12/22 06:45:36;;;;;;;14.27;9.00;;;13.30;98.60;;;;;;5049391;28;20027;-91
2020/12/22 06:48:02;;;;;;;10.20;7.60;;;13.30;98.60;;;;;;5035721;28;20039;-92
2020/12/22 06:50:45;;;;;;;14.68;9.07;;;13.30;98.70;;;;;;5053275;28;20166;-92
2020/12/22 06:53:33;;;;;;;13.10;9.18;;;13.30;98.60;;;;;;5039086;28;20100;-92
2020/12/22 06:55:59;;;;;;;13.70;9.35;;;13.30;98.60;;;;;;5041661;28;20017;-91
2020/12/22 06:58:41;;;;;;;17.90;10.52;;;13.30;98.50;;;;;;5038184;28;20031;-94
2020/12/22 07:01:25;;;;;;;17.85;10.63;;;13.30;98.40;;;;;;5054349;28;20025;-94
2020/12/22 07:03:51;;;;;;;13.95;9.43;;;13.30;98.40;;;;;;5057586;28;20017;-96
2020/12/22 07:07:04;;;;;;;15.00;9.90;;;13.30;98.20;;;;;;5037332;28;20067;-91
2020/12/22 07:09:32;;;;;;;16.58;8.98;;;13.30;98.20;;;;;;5031598;28;20032;-94
2020/12/22 07:12:11;;;;;;;13.20;7.40;;;13.20;98.10;;;;;;5036793;28;20477;-93
2020/12/22 07:14:49;;;;;;;10.45;6.25;;;13.20;98.00;;;;;;5052921;28;20412;-90
2020/12/22 07:17:16;;;;;;;10.63;6.35;;;13.20;97.90;;;;;;5051695;28;20091;-95
2020/12/22 07:19:48;;;;;;;9.18;4.70;;;13.20;97.90;;;;;;5047028;28;20025;-90
2020/12/22 07:22:15;;;;;;;14.73;5.25;;;13.10;97.90;;;;;;5047322;28;20032;-95
2020/12/22 07:24:41;;;;;;;8.57;4.13;;;13.10;97.70;;;;;;5053307;28;20075;-94
2020/12/22 07:27:08;;;;;;;6.43;3.22;;;13.10;97.70;;;;;;5037531;28;20033;-94
2020/12/22 07:29:41;;;;;;;9.93;2.58;;;13.10;97.70;;;;;;5008120;28;20040;-93
2020/12/22 07:32:08;;;;;;;7.93;2.20;;;13.00;97.50;;;;;;5036151;28;20025;-95
2020/12/22 07:34:39;;;;;;;7.75;2.30;;;13.00;97.50;;;;;;5047053;28;20036;-93
2020/12/22 07:37:08;;;;;;;6.60;2.05;;;13.00;97.40;;;;;;5047214;28;20029;-92
2020/12/22 07:39:35;;;;;;;5.25;1.65;;;13.00;97.30;;;;;;5051118;28;20013;-95
2020/12/22 07:42:11;;;;;;;6.93;2.03;;;13.00;97.20;;;;;;5001157;28;20028;-94
2020/12/22 07:44:37;;;;;;;4.53;1.50;;;13.00;97.20;;;;;;5050140;28;20016;-95
2020/12/22 07:47:03;;;;;;;5.45;1.40;;;13.00;97.20;;;;;;5035185;28;20033;-96
2020/12/22 07:49:29;;;;;;;4.68;1.30;;;13.00;97.30;;;;;;5061864;22;20128;-87
2020/12/22 07:51:55;;;;;;;8.88;1.38;;;12.90;97.20;;;;;;5019857;28;20056;-88
2020/12/22 07:54:20;;;;;;;5.00;1.17;;;12.90;97.00;;;;;;5003880;28;20025;-86
2020/12/22 07:56:46;;;;;;;3.83;1.20;;;12.90;97.20;;;;;;5027724;28;20021;-87
2020/12/22 07:59:14;;;;;;;5.20;1.85;;;12.90;97.10;;;;;;5024525;28;20478;-87
2020/12/22 08:02:03;;;;;;;5.85;1.45;;;12.90;97.20;;;;;;5052991;28;20421;-92
2020/12/22 08:04:29;;;;;;;10.10;1.65;;;12.90;97.20;;;;;;5036368;28;20113;-87
2020/12/22 08:06:59;;;;;;;8.70;1.70;;;12.90;97.00;;;;;;5031255;28;20542;-87
2020/12/22 08:09:45;;;;;;;5.75;1.42;;;12.90;97.10;;;;;;5016537;28;20031;-88
2020/12/22 08:12:11;;;;;;;6.95;1.58;;;12.90;97.10;;;;;;5030348;28;20033;-87
2020/12/22 08:14:42;;;;;;;10.70;2.03;;;12.90;97.00;;;;;;5019462;28;20116;-87
2020/12/22 08:17:18;;;;;;;10.35;1.75;;;12.90;97.10;;;;;;5021582;28;20088;-88
2020/12/22 08:19:44;;;;;;;10.10;1.75;;;12.80;97.10;;;;;;5022174;28;20024;-88
2020/12/22 08:22:17;;;;;;;6.28;1.50;;;12.80;97.10;;;;;;5030931;28;20013;-88
2020/12/22 08:24:43;;;;;;;12.40;2.20;;;12.80;97.00;;;;;;5011276;28;20034;-88
2020/12/22 08:27:10;;;;;;;11.40;2.20;;;12.80;97.00;;;;;;5027854;28;20021;-88
2020/12/22 08:29:38;;;;;;;15.63;2.20;;;12.80;97.20;;;;;;5054162;28;20028;-88
2020/12/22 08:32:05;;;;;;;14.38;2.42;;;12.70;97.30;;;;;;5021940;28;20071;-88
2020/12/22 08:34:32;;;;;;;7.38;1.77;;;12.70;97.40;;;;;;5021672;28;20025;-88
2020/12/22 08:37:07;;;;;;;4.97;1.15;;;12.70;97.30;;;;;;5056296;28;20029;-88
2020/12/22 08:39:39;;;;;;;15.60;2.22;;;12.70;97.40;;;;;;5043764;28;20020;-89
2020/12/22 08:42:09;;;;;;;7.80;1.60;;;12.70;97.30;;;;;;5038154;28;20063;-89
2020/12/22 08:44:35;;;;;;;6.93;1.52;;;12.70;97.30;;;;;;5038045;28;20082;-88
2020/12/22 08:47:13;;;;;;;8.98;1.98;;;12.60;97.30;;;;;;5009409;28;20036;-89
2020/12/22 08:49:39;;;;;;;10.73;1.88;;;12.70;97.30;;;;;;5042284;28;20089;-88
2020/12/22 08:52:10;;;;;;;9.43;2.03;;;12.70;97.30;;;;;;5058010;28;20461;-88
2020/12/22 08:54:36;;;;;;;15.63;3.13;;;12.70;97.40;;;;;;5025097;28;20025;-88
2020/12/22 08:57:29;;;;;;;8.02;2.05;;;12.70;97.40;;;;;;5019932;28;20615;-88
2020/12/22 08:59:55;;;;;;;7.78;1.70;;;12.70;97.40;;;;;;5036827;28;20533;-87
2020/12/22 09:02:23;;;;;;;10.82;1.90;;;12.70;97.30;;;;;;5007557;28;20172;-90
2020/12/22 09:04:49;;;;;;;11.45;1.98;;;12.70;97.20;;;;;;5034177;28;20029;-91
2020/12/22 09:07:15;;;;;;;12.10;2.22;;;12.70;97.10;;;;;;5007890;28;20036;-90
2020/12/22 09:09:40;;;;;;;8.85;1.95;;;12.70;97.20;;;;;;5030645;28;20088;-90
2020/12/22 09:12:08;;;;;;;10.05;2.30;;;12.70;97.00;;;;;;5020605;28;20026;-90
2020/12/22 09:14:55;;;;;;;11.07;2.22;;;12.70;97.00;;;;;;5038515;28;20025;-91
2020/12/22 09:17:33;;;;;;;12.68;2.20;;;12.70;97.00;;;;;;5055428;28;20023;-89
2020/12/22 09:19:59;;;;;;;9.68;1.98;;;12.60;97.00;;;;;;5038162;28;20036;-90
2020/12/22 09:22:30;;;;;;;7.55;2.53;;;12.70;97.10;;;;;;5036002;28;20036;-90
2020/12/22 09:25:00;;;;;;;10.05;2.00;;;12.70;97.10;;;;;;5037231;28;20040;-90
2020/12/22 09:27:29;;;;;;;10.50;1.95;;;12.70;97.10;;;;;;5022734;28;20029;-90
2020/12/22 09:29:56;;;;;;;9.63;2.45;;;12.70;97.10;;;;;;5037979;28;20032;-90
2020/12/22 09:32:21;;;;;;;12.00;1.75;;;12.70;97.40;;;;;;5038282;28;20028;-91
2020/12/22 09:34:49;;;;;;;12.95;2.88;;;12.70;97.20;;;;;;5046620;28;20017;-89
2020/12/22 09:37:14;;;;;;;13.98;2.63;;;12.70;97.20;;;;;;5023340;28;20072;-90
2020/12/22 09:39:40;;;;;;;7.95;2.08;;;12.70;97.30;;;;;;5054272;28;20025;-89
2020/12/22 09:42:06;;;;;;;11.50;2.03;;;12.70;97.20;;;;;;5024322;28;20466;-90
2020/12/22 09:44:33;;;;;;;10.13;2.10;;;12.70;97.10;;;;;;5017599;28;20041;-89
2020/12/22 09:46:59;;;;;;;10.82;2.10;;;12.80;97.10;;;;;;5039939;28;20025;-90
2020/12/22 09:49:26;;;;;;;9.55;2.00;;;12.80;97.10;;;;;;5001902;28;20056;-88
2020/12/22 09:51:53;;;;;;;8.23;2.22;;;12.80;97.20;;;;;;5060864;28;20520;-90
2020/12/22 09:54:19;;;;;;;14.80;2.40;;;12.80;97.20;;;;;;5026200;28;20086;-90
2020/12/22 09:56:45;;;;;;;14.32;2.45;;;12.80;97.10;;;;;;5039014;28;20028;-89
2020/12/22 09:59:11;;;;;;;10.05;2.30;;;12.80;97.00;;;;;;5027597;28;20032;-89
2020/12/22 10:01:43;;;;;;;11.90;2.53;;;12.80;97.10;;;;;;5037751;28;20025;-89
2020/12/22 10:04:09;;;;;;;9.95;2.35;;;12.80;97.00;;;;;;5023947;28;20029;-89
2020/12/22 10:06:35;;;;;;;8.95;2.40;;;12.80;97.00;;;;;;5022497;28;20037;-90
2020/12/22 10:09:01;;;;;;;11.52;2.75;;;12.80;97.10;;;;;;5002452;28;20020;-90
2020/12/22 10:11:31;;;;;;;10.27;2.17;;;12.80;97.10;;;;;;5048585;28;20472;-90
2020/12/22 10:13:57;;;;;;;8.10;2.00;;;12.80;97.20;;;;;;5038820;28;20032;-90
2020/12/22 10:16:23;;;;;;;10.55;2.33;;;12.80;97.20;;;;;;5003065;28;20817;-88
2020/12/22 10:18:49;;;;;;;13.60;3.05;;;12.90;97.10;;;;;;5041203;28;20479;-88
2020/12/22 10:21:17;;;;;;;10.48;2.63;;;12.80;97.20;;;;;;5020927;28;20036;-90
2020/12/22 10:23:45;;;;;;;9.75;2.85;;;12.90;97.20;;;;;;5037629;28;20021;-88
2020/12/22 10:26:31;;;;;;;;;;;;;;;;;;;;;
2020/12/22 10:29:46;;;;;;;14.20;3.45;;;12.90;97.20;;;;;;5059267;28;20104;-89
2020/12/22 10:32:29;;;;;;;10.50;2.60;;;13.00;97.20;;;;;;5012518;28;20041;-89
2020/12/22 10:39:44;;;;;;;;;;;;;;;;;;;;;
2020/12/22 10:42:18;;;;;;;9.75;3.22;;;12.90;97.20;;;;;;4888731;29;20062;-89
2020/12/22 10:44:44;;;;;;;9.02;2.38;;;13.00;97.40;;;;;;4916586;29;20035;-86
2020/12/22 10:47:10;;;;;;;11.85;3.30;;;13.00;97.40;;;;;;4907137;29;20055;-89
2020/12/22 10:49:36;;;;;;;8.98;2.45;;;13.00;97.30;;;;;;4902500;29;20086;-88
2020/12/22 10:52:02;;;;;;;10.23;2.70;;;12.90;97.20;;;;;;4899670;29;20055;-88
2020/12/22 10:54:28;;;;;;;13.65;3.30;;;12.90;97.20;;;;;;4916392;29;20096;-88
2020/12/22 10:56:53;;;;;;;10.88;2.80;;;13.00;97.20;;;;;;4929608;28;20461;-88
2020/12/22 10:59:19;;;;;;;12.88;3.17;;;13.00;97.20;;;;;;4977779;28;20050;-89
2020/12/22 11:01:47;;;;;;;13.02;3.50;;;13.00;97.20;;;;;;4956757;28;20027;-89
2020/12/22 11:04:13;;;;;;;10.80;3.03;;;13.00;97.10;;;;;;4956389;28;20492;-88
2020/12/22 11:06:49;;;;;;;10.43;4.03;;;13.00;97.20;;;;;;4955804;28;20125;-89
2020/12/22 11:09:14;;;;;;;11.02;3.53;;;13.00;97.10;;;;;;4990706;28;20526;-88
2020/12/22 11:11:46;;;;;;;10.32;3.50;;;13.00;97.10;;;;;;5000332;28;20041;-88
2020/12/22 11:14:12;;;;;;;10.38;3.33;;;13.00;97.10;;;;;;5034979;28;20029;-88
2020/12/22 11:16:38;;;;;;;9.48;3.60;;;13.00;97.20;;;;;;5037337;28;20031;-88
2020/12/22 11:19:03;;;;;;;14.27;4.63;;;13.00;97.10;;;;;;5032618;28;20104;-88
2020/12/22 11:21:29;;;;;;;10.30;3.78;;;13.10;97.20;;;;;;5035039;28;20032;-88
2020/12/22 11:23:55;;;;;;;12.80;4.55;;;13.00;97.10;;;;;;5019608;28;20040;-88
2020/12/22 11:26:22;;;;;;;10.57;4.70;;;13.10;97.00;;;;;;5034428;28;20036;-88
2020/12/22 11:28:49;;;;;;;10.50;4.57;;;13.10;97.00;;;;;;5032918;28;20104;-88
2020/12/22 11:31:14;;;;;;;9.63;4.28;;;13.10;97.10;;;;;;5037404;28;20366;-88
2020/12/22 11:33:41;;;;;;;9.40;3.75;;;13.10;97.10;;;;;;5046898;28;20020;-91
2020/12/22 11:36:09;;;;;;;9.43;3.17;;;13.20;97.10;;;;;;5037455;28;20025;-90
2020/12/22 11:38:35;;;;;;;5.75;2.17;;;13.20;96.50;;;;;;5046444;28;20020;-90
2020/12/22 11:41:45;;;;;;;7.07;1.60;;;13.10;96.60;;;;;;5005279;28;20034;-90
2020/12/22 11:44:10;;;;;;;4.97;1.40;;;13.10;96.30;;;;;;5034222;28;20044;-90
2020/12/22 11:46:36;;;;;;;5.53;1.45;;;13.10;96.50;;;;;;5015315;28;20025;-91
2020/12/22 11:49:03;;;;;;;5.55;1.20;;;13.10;96.50;;;;;;5035316;28;20148;-91
2020/12/22 11:51:29;;;;;;;2.15;1.10;;;13.10;96.70;;;;;;5049707;28;20464;-90
2020/12/22 11:53:54;;;;;;;4.05;1.20;;;13.00;96.60;;;;;;5036057;28;20116;-91
2020/12/22 11:56:20;;;;;;;3.03;1.10;;;13.10;96.70;;;;;;5002346;28;20025;-89
2020/12/22 11:58:46;;;;;;;3.67;1.10;;;13.00;96.80;;;;;;5029233;28;20025;-90
2020/12/22 12:01:11;;;;;;;3.67;1.10;;;13.10;96.70;;;;;;5035047;28;20553;-89
2020/12/22 12:03:37;;;;;;;3.88;1.20;;;13.00;96.80;;;;;;5018739;28;20393;-89
2020/12/22 12:06:03;;;;;;;3.45;1.13;;;13.00;96.80;;;;;;5023641;28;20543;-89
2020/12/22 12:08:29;;;;;;;4.20;1.20;;;13.10;96.90;;;;;;5020050;28;20390;-90
2020/12/22 12:10:55;;;;;;;2.85;1.00;;;13.10;96.90;;;;;;5052849;28;20087;-90
2020/12/22 12:13:21;;;;;;;2.08;1.00;;;13.10;96.70;;;;;;5053371;28;20405;-88
2020/12/22 12:15:48;;;;;;;2.38;1.40;;;13.10;96.50;;;;;;5000542;28;20021;-88
2020/12/22 12:18:14;;;;;;;3.00;1.30;;;13.10;96.10;;;;;;5018068;28;20025;-89
2020/12/22 12:20:39;;;;;;;2.30;1.25;;;13.00;96.00;;;;;;5018438;28;20108;-87
2020/12/22 12:23:05;;;;;;;2.75;1.20;;;13.00;95.80;;;;;;5035767;28;20031;-89
2020/12/22 12:25:30;;;;;;;1.75;1.20;;;12.90;95.80;;;;;;5039172;23;20048;-89
2020/12/22 12:27:56;;;;;;;3.55;1.92;;;12.90;96.00;;;;;;5051941;28;20110;-88
2020/12/22 12:30:21;;;;;;;3.50;1.77;;;12.90;95.90;;;;;;5045395;28;20491;-87
2020/12/22 12:32:48;;;;;;;1.92;1.30;;;12.80;96.10;;;;;;5057245;28;20021;-87
2020/12/22 12:35:13;;;;;;;2.25;1.30;;;12.80;96.10;;;;;;5051793;28;20021;-88
2020/12/22 12:37:39;;;;;;;3.28;1.50;;;12.80;96.10;;;;;;5021623;28;20044;-87
2020/12/22 12:40:05;;;;;;;4.25;1.45;;;12.80;96.30;;;;;;5053892;28;20531;-87
2020/12/22 12:42:31;;;;;;;5.22;2.22;;;12.70;96.30;;;;;;5074522;28;20474;-87
2020/12/22 12:44:57;;;;;;;3.78;2.08;;;12.70;96.20;;;;;;5048155;28;20019;-88
2020/12/22 12:47:23;;;;;;;5.57;2.10;;;12.70;96.30;;;;;;5015822;28;20032;-87
2020/12/22 12:49:49;;;;;;;4.80;2.15;;;12.70;96.10;;;;;;5058313;28;20035;-87
2020/12/22 12:52:15;;;;;;;3.70;1.90;;;12.70;96.20;;;;;;5039217;28;20028;-88
2020/12/22 12:54:41;;;;;;;4.35;2.00;;;12.70;96.30;;;;;;5018356;28;20061;-88
2020/12/22 12:57:07;;;;;;;4.07;2.17;;;12.70;96.40;;;;;;5045922;28;20028;-89